sensor_id;sensor_type;location;lat;lon;timestamp;P1;durP1;ratioP1;P2;durP2;ratioP2
4806;SDS011;2417;52.482;13.432;2023-05-27T00:00:46;36.23;;;4.57;;
4806;SDS011;2417;52.482;13.432;2023-05-27T00:03:14;37.33;;;5.07;;
4806;SDS011;2417;52.482;13.432;2023-05-27T00:05:43;38.20;;;5.13;;
4806;SDS011;2417;52.482;13.432;2023-05-27T00:08:11;38.83;;;5.10;;
4806;SDS011;2417;52.482;13.432;2023-05-27T00:10:39;36.77;;;4.93;;
4806;SDS011;2417;52.482;13.432;2023-05-27T00:13:07;40.97;;;4.93;;
4806;SDS011;2417;52.482;13.432;2023-05-27T00:15:35;33.73;;;4.10;;
4806;SDS011;2417;52.482;13.432;2023-05-27T00:18:03;38.30;;;4.53;;
4806;SDS011;2417;52.482;13.432;2023-05-27T00:20:31;37.30;;;4.73;;
4806;SDS011;2417;52.482;13.432;2023-05-27T00:23:01;44.53;;;5.50;;
4806;SDS011;2417;52.482;13.432;2023-05-27T00:25:29;37.77;;;4.60;;
4806;SDS011;2417;52.482;13.432;2023-05-27T00:27:58;37.93;;;4.70;;
4806;SDS011;2417;52.482;13.432;2023-05-27T00:30:27;39.63;;;4.63;;
4806;SDS011;2417;52.482;13.432;2023-05-27T00:32:55;36.67;;;3.90;;
4806;SDS011;2417;52.482;13.432;2023-05-27T00:35:23;35.13;;;4.60;;
4806;SDS011;2417;52.482;13.432;2023-05-27T00:37:51;37.27;;;4.37;;
4806;SDS011;2417;52.482;13.432;2023-05-27T00:40:21;36.80;;;4.60;;
4806;SDS011;2417;52.482;13.432;2023-05-27T00:42:49;39.20;;;5.10;;
4806;SDS011;2417;52.482;13.432;2023-05-27T00:45:17;38.00;;;4.80;;
4806;SDS011;2417;52.482;13.432;2023-05-27T00:47:45;39.97;;;4.97;;
4806;SDS011;2417;52.482;13.432;2023-05-27T00:50:13;38.30;;;4.60;;
4806;SDS011;2417;52.482;13.432;2023-05-27T00:52:41;43.00;;;4.80;;
4806;SDS011;2417;52.482;13.432;2023-05-27T00:55:09;35.60;;;4.77;;
4806;SDS011;2417;52.482;13.432;2023-05-27T00:57:38;35.20;;;4.60;;
4806;SDS011;2417;52.482;13.432;2023-05-27T01:00:07;35.83;;;4.73;;
4806;SDS011;2417;52.482;13.432;2023-05-27T01:02:37;41.47;;;4.77;;
4806;SDS011;2417;52.482;13.432;2023-05-27T01:05:09;42.83;;;4.90;;
4806;SDS011;2417;52.482;13.432;2023-05-27T01:07:42;38.97;;;4.93;;
4806;SDS011;2417;52.482;13.432;2023-05-27T01:10:14;42.43;;;4.60;;
4806;SDS011;2417;52.482;13.432;2023-05-27T01:12:49;40.80;;;5.40;;
4806;SDS011;2417;52.482;13.432;2023-05-27T01:15:18;39.80;;;5.50;;
4806;SDS011;2417;52.482;13.432;2023-05-27T01:17:47;40.33;;;5.60;;
4806;SDS011;2417;52.482;13.432;2023-05-27T01:20:15;39.20;;;4.80;;
4806;SDS011;2417;52.482;13.432;2023-05-27T01:22:45;46.23;;;5.27;;
4806;SDS011;2417;52.482;13.432;2023-05-27T01:25:14;39.87;;;4.80;;
4806;SDS011;2417;52.482;13.432;2023-05-27T01:27:43;38.60;;;4.87;;
4806;SDS011;2417;52.482;13.432;2023-05-27T01:30:12;38.40;;;4.50;;
4806;SDS011;2417;52.482;13.432;2023-05-27T01:32:41;38.87;;;5.30;;
4806;SDS011;2417;52.482;13.432;2023-05-27T01:35:13;42.43;;;4.93;;
4806;SDS011;2417;52.482;13.432;2023-05-27T01:37:46;38.07;;;5.17;;
4806;SDS011;2417;52.482;13.432;2023-05-27T01:40:14;40.27;;;4.87;;
4806;SDS011;2417;52.482;13.432;2023-05-27T01:42:43;37.00;;;4.50;;
4806;SDS011;2417;52.482;13.432;2023-05-27T01:45:12;46.10;;;5.43;;
4806;SDS011;2417;52.482;13.432;2023-05-27T01:47:42;40.60;;;5.50;;
4806;SDS011;2417;52.482;13.432;2023-05-27T01:50:10;42.97;;;4.73;;
4806;SDS011;2417;52.482;13.432;2023-05-27T01:52:38;48.00;;;4.97;;
4806;SDS011;2417;52.482;13.432;2023-05-27T01:55:09;39.07;;;5.20;;
4806;SDS011;2417;52.482;13.432;2023-05-27T01:57:38;43.90;;;5.60;;
4806;SDS011;2417;52.482;13.432;2023-05-27T02:00:07;37.57;;;5.07;;
4806;SDS011;2417;52.482;13.432;2023-05-27T02:02:43;41.47;;;5.30;;
4806;SDS011;2417;52.482;13.432;2023-05-27T02:05:16;43.57;;;5.50;;
4806;SDS011;2417;52.482;13.432;2023-05-27T02:07:44;39.00;;;5.20;;
4806;SDS011;2417;52.482;13.432;2023-05-27T02:10:13;42.90;;;5.10;;
4806;SDS011;2417;52.482;13.432;2023-05-27T02:12:41;37.07;;;5.10;;
4806;SDS011;2417;52.482;13.432;2023-05-27T02:15:09;35.70;;;4.50;;
4806;SDS011;2417;52.482;13.432;2023-05-27T02:17:36;38.73;;;4.90;;
4806;SDS011;2417;52.482;13.432;2023-05-27T02:20:05;43.07;;;4.93;;
4806;SDS011;2417;52.482;13.432;2023-05-27T02:22:34;37.23;;;5.10;;
4806;SDS011;2417;52.482;13.432;2023-05-27T02:25:02;43.20;;;5.43;;
4806;SDS011;2417;52.482;13.432;2023-05-27T02:27:32;40.67;;;4.70;;
4806;SDS011;2417;52.482;13.432;2023-05-27T02:30:01;38.23;;;5.10;;
4806;SDS011;2417;52.482;13.432;2023-05-27T02:32:30;55.40;;;5.30;;
4806;SDS011;2417;52.482;13.432;2023-05-27T02:34:59;35.57;;;5.00;;
4806;SDS011;2417;52.482;13.432;2023-05-27T02:37:27;36.00;;;4.43;;
4806;SDS011;2417;52.482;13.432;2023-05-27T02:39:56;38.67;;;5.07;;
4806;SDS011;2417;52.482;13.432;2023-05-27T02:42:23;37.90;;;5.20;;
4806;SDS011;2417;52.482;13.432;2023-05-27T02:44:53;40.60;;;5.37;;
4806;SDS011;2417;52.482;13.432;2023-05-27T02:47:22;45.23;;;4.83;;
4806;SDS011;2417;52.482;13.432;2023-05-27T02:49:50;37.33;;;5.07;;
4806;SDS011;2417;52.482;13.432;2023-05-27T02:52:18;35.10;;;4.77;;
4806;SDS011;2417;52.482;13.432;2023-05-27T02:54:46;40.87;;;5.30;;
4806;SDS011;2417;52.482;13.432;2023-05-27T02:57:14;39.00;;;5.07;;
4806;SDS011;2417;52.482;13.432;2023-05-27T02:59:44;30.63;;;4.30;;
4806;SDS011;2417;52.482;13.432;2023-05-27T03:02:13;38.50;;;4.80;;
4806;SDS011;2417;52.482;13.432;2023-05-27T03:04:41;35.40;;;4.70;;
4806;SDS011;2417;52.482;13.432;2023-05-27T03:07:10;37.97;;;5.07;;
4806;SDS011;2417;52.482;13.432;2023-05-27T03:09:38;41.80;;;6.10;;
4806;SDS011;2417;52.482;13.432;2023-05-27T03:12:06;39.73;;;6.20;;
4806;SDS011;2417;52.482;13.432;2023-05-27T03:14:34;38.93;;;5.00;;
4806;SDS011;2417;52.482;13.432;2023-05-27T03:17:02;42.87;;;5.23;;
4806;SDS011;2417;52.482;13.432;2023-05-27T03:19:31;35.53;;;5.00;;
4806;SDS011;2417;52.482;13.432;2023-05-27T03:21:59;36.33;;;5.37;;
4806;SDS011;2417;52.482;13.432;2023-05-27T03:24:28;35.77;;;5.53;;
4806;SDS011;2417;52.482;13.432;2023-05-27T03:26:56;36.73;;;5.30;;
4806;SDS011;2417;52.482;13.432;2023-05-27T03:29:24;34.73;;;5.20;;
4806;SDS011;2417;52.482;13.432;2023-05-27T03:31:52;38.63;;;5.23;;
4806;SDS011;2417;52.482;13.432;2023-05-27T03:34:20;35.10;;;5.40;;
4806;SDS011;2417;52.482;13.432;2023-05-27T03:36:50;34.23;;;4.90;;
4806;SDS011;2417;52.482;13.432;2023-05-27T03:39:23;33.87;;;5.20;;
4806;SDS011;2417;52.482;13.432;2023-05-27T03:41:55;37.43;;;4.90;;
4806;SDS011;2417;52.482;13.432;2023-05-27T03:44:23;36.53;;;4.80;;
4806;SDS011;2417;52.482;13.432;2023-05-27T03:46:51;38.57;;;5.20;;
4806;SDS011;2417;52.482;13.432;2023-05-27T03:49:20;43.23;;;6.30;;
4806;SDS011;2417;52.482;13.432;2023-05-27T03:51:49;38.30;;;5.87;;
4806;SDS011;2417;52.482;13.432;2023-05-27T03:54:17;35.03;;;5.10;;
4806;SDS011;2417;52.482;13.432;2023-05-27T03:56:46;40.67;;;5.67;;
4806;SDS011;2417;52.482;13.432;2023-05-27T03:59:14;35.43;;;5.20;;
4806;SDS011;2417;52.482;13.432;2023-05-27T04:01:42;36.30;;;5.67;;
4806;SDS011;2417;52.482;13.432;2023-05-27T04:04:11;33.83;;;4.80;;
4806;SDS011;2417;52.482;13.432;2023-05-27T04:06:39;34.90;;;4.90;;
4806;SDS011;2417;52.482;13.432;2023-05-27T04:09:09;38.67;;;5.20;;
4806;SDS011;2417;52.482;13.432;2023-05-27T04:11:37;40.13;;;5.40;;
4806;SDS011;2417;52.482;13.432;2023-05-27T04:14:06;39.90;;;5.07;;
4806;SDS011;2417;52.482;13.432;2023-05-27T04:16:36;40.77;;;5.33;;
4806;SDS011;2417;52.482;13.432;2023-05-27T04:19:07;37.10;;;4.77;;
4806;SDS011;2417;52.482;13.432;2023-05-27T04:21:36;37.87;;;5.37;;
4806;SDS011;2417;52.482;13.432;2023-05-27T04:24:04;40.30;;;5.03;;
4806;SDS011;2417;52.482;13.432;2023-05-27T04:26:34;33.70;;;4.50;;
4806;SDS011;2417;52.482;13.432;2023-05-27T04:29:02;43.00;;;5.57;;
4806;SDS011;2417;52.482;13.432;2023-05-27T04:31:32;40.10;;;5.80;;
4806;SDS011;2417;52.482;13.432;2023-05-27T04:34:08;39.63;;;6.00;;
4806;SDS011;2417;52.482;13.432;2023-05-27T04:36:37;38.10;;;5.80;;
4806;SDS011;2417;52.482;13.432;2023-05-27T04:39:11;38.77;;;5.87;;
4806;SDS011;2417;52.482;13.432;2023-05-27T04:41:43;36.07;;;4.80;;
4806;SDS011;2417;52.482;13.432;2023-05-27T04:44:18;34.90;;;4.73;;
4806;SDS011;2417;52.482;13.432;2023-05-27T04:46:49;45.17;;;5.30;;
4806;SDS011;2417;52.482;13.432;2023-05-27T04:49:16;41.57;;;5.43;;
4806;SDS011;2417;52.482;13.432;2023-05-27T04:51:44;35.30;;;4.40;;
4806;SDS011;2417;52.482;13.432;2023-05-27T04:54:17;36.90;;;5.10;;
4806;SDS011;2417;52.482;13.432;2023-05-27T04:56:47;34.97;;;4.20;;
4806;SDS011;2417;52.482;13.432;2023-05-27T04:59:22;39.20;;;5.60;;
4806;SDS011;2417;52.482;13.432;2023-05-27T05:01:57;40.37;;;5.53;;
4806;SDS011;2417;52.482;13.432;2023-05-27T05:04:44;35.47;;;5.17;;
4806;SDS011;2417;52.482;13.432;2023-05-27T05:07:13;41.13;;;5.03;;
4806;SDS011;2417;52.482;13.432;2023-05-27T05:09:41;41.23;;;5.80;;
4806;SDS011;2417;52.482;13.432;2023-05-27T05:12:18;39.73;;;4.60;;
4806;SDS011;2417;52.482;13.432;2023-05-27T05:14:48;36.30;;;4.30;;
4806;SDS011;2417;52.482;13.432;2023-05-27T05:17:16;40.63;;;4.67;;
4806;SDS011;2417;52.482;13.432;2023-05-27T05:19:45;35.20;;;4.77;;
4806;SDS011;2417;52.482;13.432;2023-05-27T05:22:14;37.53;;;5.87;;
4806;SDS011;2417;52.482;13.432;2023-05-27T05:24:47;53.77;;;7.00;;
4806;SDS011;2417;52.482;13.432;2023-05-27T05:27:18;39.87;;;5.10;;
4806;SDS011;2417;52.482;13.432;2023-05-27T05:29:46;42.60;;;5.03;;
4806;SDS011;2417;52.482;13.432;2023-05-27T05:32:14;35.77;;;4.10;;
4806;SDS011;2417;52.482;13.432;2023-05-27T05:34:42;40.70;;;4.77;;
4806;SDS011;2417;52.482;13.432;2023-05-27T05:37:11;37.30;;;4.50;;
4806;SDS011;2417;52.482;13.432;2023-05-27T05:39:40;39.33;;;4.07;;
4806;SDS011;2417;52.482;13.432;2023-05-27T05:42:08;40.90;;;4.80;;
4806;SDS011;2417;52.482;13.432;2023-05-27T05:44:37;37.00;;;4.10;;
4806;SDS011;2417;52.482;13.432;2023-05-27T05:47:07;38.80;;;3.80;;
4806;SDS011;2417;52.482;13.432;2023-05-27T05:49:36;35.20;;;3.50;;
4806;SDS011;2417;52.482;13.432;2023-05-27T05:52:06;34.87;;;2.80;;
4806;SDS011;2417;52.482;13.432;2023-05-27T05:54:34;34.93;;;3.30;;
4806;SDS011;2417;52.482;13.432;2023-05-27T05:57:02;36.30;;;3.40;;
4806;SDS011;2417;52.482;13.432;2023-05-27T05:59:30;36.97;;;3.33;;
4806;SDS011;2417;52.482;13.432;2023-05-27T06:01:59;34.27;;;3.33;;
4806;SDS011;2417;52.482;13.432;2023-05-27T06:04:27;36.80;;;3.57;;
4806;SDS011;2417;52.482;13.432;2023-05-27T06:06:55;33.23;;;3.40;;
4806;SDS011;2417;52.482;13.432;2023-05-27T06:09:45;32.10;;;2.87;;
4806;SDS011;2417;52.482;13.432;2023-05-27T06:12:26;33.77;;;2.57;;
4806;SDS011;2417;52.482;13.432;2023-05-27T06:14:54;35.17;;;3.10;;
4806;SDS011;2417;52.482;13.432;2023-05-27T06:17:31;35.20;;;2.70;;
4806;SDS011;2417;52.482;13.432;2023-05-27T06:19:59;35.33;;;3.33;;
4806;SDS011;2417;52.482;13.432;2023-05-27T06:22:27;36.17;;;3.10;;
4806;SDS011;2417;52.482;13.432;2023-05-27T06:24:55;24.97;;;2.53;;
4806;SDS011;2417;52.482;13.432;2023-05-27T06:27:37;25.40;;;2.20;;
4806;SDS011;2417;52.482;13.432;2023-05-27T06:30:08;31.37;;;3.20;;
4806;SDS011;2417;52.482;13.432;2023-05-27T06:32:41;30.43;;;3.07;;
4806;SDS011;2417;52.482;13.432;2023-05-27T06:35:10;31.40;;;3.00;;
4806;SDS011;2417;52.482;13.432;2023-05-27T06:37:38;30.97;;;2.80;;
4806;SDS011;2417;52.482;13.432;2023-05-27T06:40:07;27.47;;;1.70;;
4806;SDS011;2417;52.482;13.432;2023-05-27T06:42:35;31.30;;;2.43;;
4806;SDS011;2417;52.482;13.432;2023-05-27T06:45:17;29.17;;;2.47;;
4806;SDS011;2417;52.482;13.432;2023-05-27T06:47:54;33.00;;;3.47;;
4806;SDS011;2417;52.482;13.432;2023-05-27T06:50:22;27.50;;;3.27;;
4806;SDS011;2417;52.482;13.432;2023-05-27T06:52:54;22.47;;;2.00;;
4806;SDS011;2417;52.482;13.432;2023-05-27T06:55:34;23.23;;;2.27;;
4806;SDS011;2417;52.482;13.432;2023-05-27T06:58:13;26.40;;;2.27;;
4806;SDS011;2417;52.482;13.432;2023-05-27T07:00:56;21.80;;;1.70;;
4806;SDS011;2417;52.482;13.432;2023-05-27T07:03:46;25.60;;;1.90;;
4806;SDS011;2417;52.482;13.432;2023-05-27T07:06:20;22.07;;;1.33;;
4806;SDS011;2417;52.482;13.432;2023-05-27T07:08:50;21.67;;;1.40;;
4806;SDS011;2417;52.482;13.432;2023-05-27T07:11:25;15.83;;;1.50;;
4806;SDS011;2417;52.482;13.432;2023-05-27T07:13:59;13.10;;;1.60;;
4806;SDS011;2417;52.482;13.432;2023-05-27T07:16:31;14.30;;;1.40;;
4806;SDS011;2417;52.482;13.432;2023-05-27T07:19:01;22.03;;;2.80;;
4806;SDS011;2417;52.482;13.432;2023-05-27T07:21:34;20.60;;;1.27;;
4806;SDS011;2417;52.482;13.432;2023-05-27T07:24:08;20.00;;;2.10;;
4806;SDS011;2417;52.482;13.432;2023-05-27T07:26:37;19.50;;;1.63;;
4806;SDS011;2417;52.482;13.432;2023-05-27T07:29:06;20.20;;;1.60;;
4806;SDS011;2417;52.482;13.432;2023-05-27T07:31:54;17.47;;;1.43;;
4806;SDS011;2417;52.482;13.432;2023-05-27T07:34:27;16.10;;;1.10;;
4806;SDS011;2417;52.482;13.432;2023-05-27T07:36:55;17.13;;;1.30;;
4806;SDS011;2417;52.482;13.432;2023-05-27T07:39:23;15.90;;;1.13;;
4806;SDS011;2417;52.482;13.432;2023-05-27T07:41:51;17.60;;;1.00;;
4806;SDS011;2417;52.482;13.432;2023-05-27T07:44:19;17.90;;;1.20;;
4806;SDS011;2417;52.482;13.432;2023-05-27T07:46:47;16.00;;;0.90;;
4806;SDS011;2417;52.482;13.432;2023-05-27T07:49:15;22.70;;;4.00;;
4806;SDS011;2417;52.482;13.432;2023-05-27T07:52:14;15.47;;;1.50;;
4806;SDS011;2417;52.482;13.432;2023-05-27T07:54:42;15.60;;;1.37;;
4806;SDS011;2417;52.482;13.432;2023-05-27T07:57:22;15.23;;;1.10;;
4806;SDS011;2417;52.482;13.432;2023-05-27T07:59:50;17.07;;;2.03;;
4806;SDS011;2417;52.482;13.432;2023-05-27T08:02:19;17.00;;;1.30;;
4806;SDS011;2417;52.482;13.432;2023-05-27T08:04:49;16.03;;;1.27;;
4806;SDS011;2417;52.482;13.432;2023-05-27T08:07:37;17.73;;;2.20;;
4806;SDS011;2417;52.482;13.432;2023-05-27T08:10:10;16.40;;;2.03;;
4806;SDS011;2417;52.482;13.432;2023-05-27T08:12:53;15.50;;;1.70;;
4806;SDS011;2417;52.482;13.432;2023-05-27T08:15:39;17.50;;;2.23;;
4806;SDS011;2417;52.482;13.432;2023-05-27T08:18:20;16.87;;;1.93;;
4806;SDS011;2417;52.482;13.432;2023-05-27T08:21:04;16.90;;;1.70;;
4806;SDS011;2417;52.482;13.432;2023-05-27T08:23:52;15.40;;;1.50;;
4806;SDS011;2417;52.482;13.432;2023-05-27T08:26:38;15.60;;;1.17;;
4806;SDS011;2417;52.482;13.432;2023-05-27T08:29:45;16.77;;;1.40;;
4806;SDS011;2417;52.482;13.432;2023-05-27T08:32:27;14.37;;;0.97;;
4806;SDS011;2417;52.482;13.432;2023-05-27T08:34:54;15.47;;;1.13;;
4806;SDS011;2417;52.482;13.432;2023-05-27T08:37:24;14.17;;;1.10;;
4806;SDS011;2417;52.482;13.432;2023-05-27T08:39:54;14.47;;;1.40;;
4806;SDS011;2417;52.482;13.432;2023-05-27T08:42:38;14.40;;;1.03;;
4806;SDS011;2417;52.482;13.432;2023-05-27T08:45:09;13.53;;;0.80;;
4806;SDS011;2417;52.482;13.432;2023-05-27T08:47:38;15.90;;;1.43;;
4806;SDS011;2417;52.482;13.432;2023-05-27T08:50:09;17.03;;;2.57;;
4806;SDS011;2417;52.482;13.432;2023-05-27T08:52:42;14.50;;;1.10;;
4806;SDS011;2417;52.482;13.432;2023-05-27T08:55:14;14.63;;;1.33;;
4806;SDS011;2417;52.482;13.432;2023-05-27T08:57:44;14.93;;;1.20;;
4806;SDS011;2417;52.482;13.432;2023-05-27T09:00:14;14.60;;;1.10;;
4806;SDS011;2417;52.482;13.432;2023-05-27T09:02:45;16.77;;;1.00;;
4806;SDS011;2417;52.482;13.432;2023-05-27T09:05:14;16.20;;;1.63;;
4806;SDS011;2417;52.482;13.432;2023-05-27T09:07:42;15.70;;;1.30;;
4806;SDS011;2417;52.482;13.432;2023-05-27T09:10:10;14.97;;;1.30;;
4806;SDS011;2417;52.482;13.432;2023-05-27T09:12:41;14.40;;;1.20;;
4806;SDS011;2417;52.482;13.432;2023-05-27T09:15:10;16.60;;;1.80;;
4806;SDS011;2417;52.482;13.432;2023-05-27T09:17:39;18.23;;;1.00;;
4806;SDS011;2417;52.482;13.432;2023-05-27T09:20:08;16.20;;;2.47;;
4806;SDS011;2417;52.482;13.432;2023-05-27T09:22:38;15.57;;;1.50;;
4806;SDS011;2417;52.482;13.432;2023-05-27T09:25:06;16.60;;;2.10;;
4806;SDS011;2417;52.482;13.432;2023-05-27T09:27:35;16.50;;;2.00;;
4806;SDS011;2417;52.482;13.432;2023-05-27T09:30:08;15.87;;;1.30;;
4806;SDS011;2417;52.482;13.432;2023-05-27T09:32:37;15.37;;;1.10;;
4806;SDS011;2417;52.482;13.432;2023-05-27T09:35:05;15.93;;;1.67;;
4806;SDS011;2417;52.482;13.432;2023-05-27T09:37:33;15.40;;;1.10;;
4806;SDS011;2417;52.482;13.432;2023-05-27T09:40:05;21.40;;;2.40;;
4806;SDS011;2417;52.482;13.432;2023-05-27T09:42:40;14.93;;;1.00;;
4806;SDS011;2417;52.482;13.432;2023-05-27T09:45:12;17.10;;;1.70;;
4806;SDS011;2417;52.482;13.432;2023-05-27T09:47:41;34.67;;;8.37;;
4806;SDS011;2417;52.482;13.432;2023-05-27T09:50:09;34.07;;;10.30;;
4806;SDS011;2417;52.482;13.432;2023-05-27T09:52:37;33.40;;;9.27;;
4806;SDS011;2417;52.482;13.432;2023-05-27T09:55:19;58.13;;;20.80;;
4806;SDS011;2417;52.482;13.432;2023-05-27T09:57:47;45.70;;;15.20;;
4806;SDS011;2417;52.482;13.432;2023-05-27T10:00:17;55.93;;;20.53;;
4806;SDS011;2417;52.482;13.432;2023-05-27T10:02:46;72.07;;;27.57;;
4806;SDS011;2417;52.482;13.432;2023-05-27T10:05:15;92.07;;;35.93;;
4806;SDS011;2417;52.482;13.432;2023-05-27T10:07:44;53.27;;;17.30;;
4806;SDS011;2417;52.482;13.432;2023-05-27T10:10:33;67.83;;;24.73;;
4806;SDS011;2417;52.482;13.432;2023-05-27T10:13:01;39.27;;;12.80;;
4806;SDS011;2417;52.482;13.432;2023-05-27T10:15:31;80.63;;;29.27;;
4806;SDS011;2417;52.482;13.432;2023-05-27T10:18:02;117.77;;;49.80;;
4806;SDS011;2417;52.482;13.432;2023-05-27T10:20:30;22.93;;;4.87;;
4806;SDS011;2417;52.482;13.432;2023-05-27T10:23:08;76.57;;;29.83;;
4806;SDS011;2417;52.482;13.432;2023-05-27T10:25:37;18.53;;;3.10;;
4806;SDS011;2417;52.482;13.432;2023-05-27T10:28:06;25.30;;;5.20;;
4806;SDS011;2417;52.482;13.432;2023-05-27T10:30:44;17.60;;;2.17;;
4806;SDS011;2417;52.482;13.432;2023-05-27T10:33:13;20.07;;;3.43;;
4806;SDS011;2417;52.482;13.432;2023-05-27T10:35:41;23.87;;;5.50;;
4806;SDS011;2417;52.482;13.432;2023-05-27T10:38:15;19.47;;;3.37;;
4806;SDS011;2417;52.482;13.432;2023-05-27T10:40:45;17.27;;;2.17;;
4806;SDS011;2417;52.482;13.432;2023-05-27T10:43:17;17.47;;;1.83;;
4806;SDS011;2417;52.482;13.432;2023-05-27T10:45:46;26.13;;;6.10;;
4806;SDS011;2417;52.482;13.432;2023-05-27T10:48:15;50.30;;;17.07;;
4806;SDS011;2417;52.482;13.432;2023-05-27T10:50:50;41.60;;;12.67;;
4806;SDS011;2417;52.482;13.432;2023-05-27T10:53:18;79.60;;;30.37;;
4806;SDS011;2417;52.482;13.432;2023-05-27T10:55:47;140.50;;;60.40;;
4806;SDS011;2417;52.482;13.432;2023-05-27T10:58:15;89.03;;;33.90;;
4806;SDS011;2417;52.482;13.432;2023-05-27T11:00:44;89.40;;;33.87;;
4806;SDS011;2417;52.482;13.432;2023-05-27T11:03:17;45.97;;;14.60;;
4806;SDS011;2417;52.482;13.432;2023-05-27T11:05:45;163.83;;;72.20;;
4806;SDS011;2417;52.482;13.432;2023-05-27T11:08:13;219.43;;;102.37;;
4806;SDS011;2417;52.482;13.432;2023-05-27T11:10:41;60.37;;;21.97;;
4806;SDS011;2417;52.482;13.432;2023-05-27T11:13:10;133.03;;;57.73;;
4806;SDS011;2417;52.482;13.432;2023-05-27T11:15:39;16.27;;;1.80;;
4806;SDS011;2417;52.482;13.432;2023-05-27T11:18:07;25.97;;;6.30;;
4806;SDS011;2417;52.482;13.432;2023-05-27T11:20:37;37.37;;;11.13;;
4806;SDS011;2417;52.482;13.432;2023-05-27T11:23:05;20.37;;;3.17;;
4806;SDS011;2417;52.482;13.432;2023-05-27T11:25:42;105.73;;;41.23;;
4806;SDS011;2417;52.482;13.432;2023-05-27T11:28:15;17.27;;;2.30;;
4806;SDS011;2417;52.482;13.432;2023-05-27T11:30:44;39.83;;;12.03;;
4806;SDS011;2417;52.482;13.432;2023-05-27T11:33:13;16.50;;;1.80;;
4806;SDS011;2417;52.482;13.432;2023-05-27T11:36:06;18.13;;;2.17;;
4806;SDS011;2417;52.482;13.432;2023-05-27T11:38:56;22.60;;;2.43;;
4806;SDS011;2417;52.482;13.432;2023-05-27T11:41:25;17.67;;;1.80;;
4806;SDS011;2417;52.482;13.432;2023-05-27T11:43:55;17.63;;;2.20;;
4806;SDS011;2417;52.482;13.432;2023-05-27T11:46:23;17.90;;;1.90;;
4806;SDS011;2417;52.482;13.432;2023-05-27T11:48:51;18.03;;;2.03;;
4806;SDS011;2417;52.482;13.432;2023-05-27T11:51:27;18.80;;;2.33;;
4806;SDS011;2417;52.482;13.432;2023-05-27T11:53:57;22.70;;;2.53;;
4806;SDS011;2417;52.482;13.432;2023-05-27T11:56:28;20.27;;;2.93;;
4806;SDS011;2417;52.482;13.432;2023-05-27T11:58:56;18.80;;;3.13;;
4806;SDS011;2417;52.482;13.432;2023-05-27T12:01:24;17.73;;;2.17;;
4806;SDS011;2417;52.482;13.432;2023-05-27T12:03:53;17.20;;;1.93;;
4806;SDS011;2417;52.482;13.432;2023-05-27T12:06:21;17.80;;;1.80;;
4806;SDS011;2417;52.482;13.432;2023-05-27T12:08:50;18.67;;;2.70;;
4806;SDS011;2417;52.482;13.432;2023-05-27T12:11:18;20.07;;;3.00;;
4806;SDS011;2417;52.482;13.432;2023-05-27T12:13:46;17.53;;;2.10;;
4806;SDS011;2417;52.482;13.432;2023-05-27T12:16:14;18.20;;;2.10;;
4806;SDS011;2417;52.482;13.432;2023-05-27T12:18:42;19.50;;;2.20;;
4806;SDS011;2417;52.482;13.432;2023-05-27T12:21:12;20.20;;;2.20;;
4806;SDS011;2417;52.482;13.432;2023-05-27T12:23:40;20.13;;;3.27;;
4806;SDS011;2417;52.482;13.432;2023-05-27T12:26:11;18.13;;;2.00;;
4806;SDS011;2417;52.482;13.432;2023-05-27T12:28:39;20.03;;;2.47;;
4806;SDS011;2417;52.482;13.432;2023-05-27T12:31:07;17.03;;;2.00;;
4806;SDS011;2417;52.482;13.432;2023-05-27T12:33:35;19.47;;;1.70;;
4806;SDS011;2417;52.482;13.432;2023-05-27T12:36:03;17.37;;;1.97;;
4806;SDS011;2417;52.482;13.432;2023-05-27T12:38:32;18.70;;;2.57;;
4806;SDS011;2417;52.482;13.432;2023-05-27T12:41:00;18.00;;;1.87;;
4806;SDS011;2417;52.482;13.432;2023-05-27T12:43:30;16.90;;;1.60;;
4806;SDS011;2417;52.482;13.432;2023-05-27T12:45:58;20.80;;;2.63;;
4806;SDS011;2417;52.482;13.432;2023-05-27T12:48:26;24.50;;;5.30;;
4806;SDS011;2417;52.482;13.432;2023-05-27T12:50:54;20.77;;;3.50;;
4806;SDS011;2417;52.482;13.432;2023-05-27T12:53:22;18.40;;;2.90;;
4806;SDS011;2417;52.482;13.432;2023-05-27T12:55:50;17.33;;;2.10;;
4806;SDS011;2417;52.482;13.432;2023-05-27T12:58:18;17.43;;;1.70;;
4806;SDS011;2417;52.482;13.432;2023-05-27T13:00:48;18.37;;;1.87;;
4806;SDS011;2417;52.482;13.432;2023-05-27T13:03:16;17.90;;;1.60;;
4806;SDS011;2417;52.482;13.432;2023-05-27T13:05:44;16.93;;;1.37;;
4806;SDS011;2417;52.482;13.432;2023-05-27T13:08:12;18.10;;;1.60;;
4806;SDS011;2417;52.482;13.432;2023-05-27T13:10:40;17.77;;;1.53;;
4806;SDS011;2417;52.482;13.432;2023-05-27T13:13:09;23.37;;;1.70;;
4806;SDS011;2417;52.482;13.432;2023-05-27T13:15:37;18.20;;;2.10;;
4806;SDS011;2417;52.482;13.432;2023-05-27T13:18:09;20.13;;;1.40;;
4806;SDS011;2417;52.482;13.432;2023-05-27T13:20:37;18.50;;;2.17;;
4806;SDS011;2417;52.482;13.432;2023-05-27T13:23:05;18.00;;;1.80;;
4806;SDS011;2417;52.482;13.432;2023-05-27T13:25:33;17.90;;;1.90;;
4806;SDS011;2417;52.482;13.432;2023-05-27T13:28:01;18.13;;;1.93;;
4806;SDS011;2417;52.482;13.432;2023-05-27T13:30:29;16.33;;;1.30;;
4806;SDS011;2417;52.482;13.432;2023-05-27T13:32:57;17.80;;;1.90;;
4806;SDS011;2417;52.482;13.432;2023-05-27T13:35:26;18.70;;;2.00;;
4806;SDS011;2417;52.482;13.432;2023-05-27T13:37:54;20.47;;;1.90;;
4806;SDS011;2417;52.482;13.432;2023-05-27T13:40:22;19.03;;;2.37;;
4806;SDS011;2417;52.482;13.432;2023-05-27T13:42:50;20.60;;;2.10;;
4806;SDS011;2417;52.482;13.432;2023-05-27T13:45:22;18.77;;;2.47;;
4806;SDS011;2417;52.482;13.432;2023-05-27T13:47:49;17.73;;;1.50;;
4806;SDS011;2417;52.482;13.432;2023-05-27T13:50:18;18.67;;;2.13;;
4806;SDS011;2417;52.482;13.432;2023-05-27T13:52:47;19.57;;;2.53;;
4806;SDS011;2417;52.482;13.432;2023-05-27T13:55:15;21.20;;;3.03;;
4806;SDS011;2417;52.482;13.432;2023-05-27T13:57:43;19.23;;;2.10;;
4806;SDS011;2417;52.482;13.432;2023-05-27T14:00:11;18.67;;;1.93;;
4806;SDS011;2417;52.482;13.432;2023-05-27T14:02:39;18.63;;;2.03;;
4806;SDS011;2417;52.482;13.432;2023-05-27T14:05:08;19.00;;;2.10;;
4806;SDS011;2417;52.482;13.432;2023-05-27T14:07:38;19.27;;;2.47;;
4806;SDS011;2417;52.482;13.432;2023-05-27T14:10:09;19.47;;;2.67;;
4806;SDS011;2417;52.482;13.432;2023-05-27T14:12:38;18.50;;;1.73;;
4806;SDS011;2417;52.482;13.432;2023-05-27T14:15:07;22.60;;;1.67;;
4806;SDS011;2417;52.482;13.432;2023-05-27T14:17:36;21.97;;;4.20;;
4806;SDS011;2417;52.482;13.432;2023-05-27T14:20:04;20.03;;;2.00;;
4806;SDS011;2417;52.482;13.432;2023-05-27T14:22:37;18.73;;;2.40;;
4806;SDS011;2417;52.482;13.432;2023-05-27T14:25:06;19.00;;;1.80;;
4806;SDS011;2417;52.482;13.432;2023-05-27T14:27:35;19.80;;;1.80;;
4806;SDS011;2417;52.482;13.432;2023-05-27T14:30:04;18.10;;;1.60;;
4806;SDS011;2417;52.482;13.432;2023-05-27T14:32:32;18.47;;;1.87;;
4806;SDS011;2417;52.482;13.432;2023-05-27T14:35:00;18.00;;;1.50;;
4806;SDS011;2417;52.482;13.432;2023-05-27T14:37:28;18.50;;;2.73;;
4806;SDS011;2417;52.482;13.432;2023-05-27T14:39:57;19.07;;;2.10;;
4806;SDS011;2417;52.482;13.432;2023-05-27T14:42:25;17.03;;;1.30;;
4806;SDS011;2417;52.482;13.432;2023-05-27T14:44:55;17.87;;;1.70;;
4806;SDS011;2417;52.482;13.432;2023-05-27T14:47:23;19.33;;;1.70;;
4806;SDS011;2417;52.482;13.432;2023-05-27T14:49:51;19.10;;;2.37;;
4806;SDS011;2417;52.482;13.432;2023-05-27T14:52:18;23.50;;;2.67;;
4806;SDS011;2417;52.482;13.432;2023-05-27T14:54:47;20.97;;;3.03;;
4806;SDS011;2417;52.482;13.432;2023-05-27T14:57:15;31.20;;;6.70;;
4806;SDS011;2417;52.482;13.432;2023-05-27T14:59:42;19.60;;;1.70;;
4806;SDS011;2417;52.482;13.432;2023-05-27T15:02:12;18.40;;;1.90;;
4806;SDS011;2417;52.482;13.432;2023-05-27T15:04:40;19.60;;;2.40;;